Portada
METAR-TAF:

METAR-TAF

Aeropuertos :

Nuakchot, Mauritania

Aeropuerto Internacional de Nuakchot

latitud: 18-18-36N, longitud: 015-58-11W, altitud: 3 m

Observación

El informe se hizo hace 16 minutos, a las 04:00 UTC
Viento 8 kt del norte
Temperatura 22°C
Humedad 83%
Presión 1011 hPa
Visibilidad: 8000 m

METAR: GQNO 280400Z 35008KT 8000 NSC 22/19 Q1011 NOSIG

Hora: 04:16 (04:16 UTC)

Pronóstico

El informe se hizo hace 5 horas y 16 minutos, a las 23:00 UTC
Pronóstico válido del 28 a las 00 UTC al 29 a las 06 UTC
Viento 14 kt del norte-noroeste
Visibilidad: 8000 m

TAF: GQNO 272300Z 2800/2906 34014KT 8000 NSC

Observaciones y pronósticos meteorológicos de más de 4000 aeropuertos (mensajes METAR y TAF).

Los puntos amarillos y rojos representan las estaciones disponibles.

Ponga el ratón en el punto deseado para ver el nombre de la estación.

Haga clic para ver las observaciones y los pronósticos meteorológicos.

Para cambiar el mapa : haga clic en los botones verdes con una cruz de color negro para hacer un zoom, en el botón verde con un guión para alejar o en las flechas verdes para mapas adyacentes.


METAR-TAF: